sensor_id;sensor_type;location;lat;lon;timestamp;P1;durP1;ratioP1;P2;durP2;ratioP2
25982;SDS011;13773;48.868;10.730;2023-05-21T00:02:15;10.93;;;9.83;;
25982;SDS011;13773;48.868;10.730;2023-05-21T00:04:42;9.13;;;8.23;;
25982;SDS011;13773;48.868;10.730;2023-05-21T00:07:09;11.00;;;9.73;;
25982;SDS011;13773;48.868;10.730;2023-05-21T00:09:35;12.40;;;9.60;;
25982;SDS011;13773;48.868;10.730;2023-05-21T00:12:04;10.87;;;9.73;;
25982;SDS011;13773;48.868;10.730;2023-05-21T00:14:31;10.73;;;9.73;;
25982;SDS011;13773;48.868;10.730;2023-05-21T00:16:56;13.90;;;9.43;;
25982;SDS011;13773;48.868;10.730;2023-05-21T00:19:22;12.30;;;9.80;;
25982;SDS011;13773;48.868;10.730;2023-05-21T00:21:48;10.13;;;9.13;;
25982;SDS011;13773;48.868;10.730;2023-05-21T00:24:14;10.77;;;8.97;;
25982;SDS011;13773;48.868;10.730;2023-05-21T00:26:40;11.20;;;8.93;;
25982;SDS011;13773;48.868;10.730;2023-05-21T00:29:07;10.00;;;9.07;;
25982;SDS011;13773;48.868;10.730;2023-05-21T00:31:34;11.97;;;9.53;;
25982;SDS011;13773;48.868;10.730;2023-05-21T00:33:59;12.97;;;9.10;;
25982;SDS011;13773;48.868;10.730;2023-05-21T00:36:25;10.07;;;9.10;;
25982;SDS011;13773;48.868;10.730;2023-05-21T00:38:51;10.20;;;9.20;;
25982;SDS011;13773;48.868;10.730;2023-05-21T00:41:17;11.20;;;9.33;;
25982;SDS011;13773;48.868;10.730;2023-05-21T00:43:43;10.20;;;8.87;;
25982;SDS011;13773;48.868;10.730;2023-05-21T00:46:11;10.50;;;9.50;;
25982;SDS011;13773;48.868;10.730;2023-05-21T00:48:40;11.13;;;9.67;;
25982;SDS011;13773;48.868;10.730;2023-05-21T00:51:10;11.53;;;9.87;;
25982;SDS011;13773;48.868;10.730;2023-05-21T00:53:37;11.10;;;10.00;;
25982;SDS011;13773;48.868;10.730;2023-05-21T00:56:03;10.57;;;9.50;;
25982;SDS011;13773;48.868;10.730;2023-05-21T00:58:30;10.03;;;9.07;;
25982;SDS011;13773;48.868;10.730;2023-05-21T01:00:57;12.50;;;9.87;;
25982;SDS011;13773;48.868;10.730;2023-05-21T01:03:27;10.87;;;9.87;;
25982;SDS011;13773;48.868;10.730;2023-05-21T01:05:54;10.67;;;9.57;;
25982;SDS011;13773;48.868;10.730;2023-05-21T01:08:24;10.43;;;9.40;;
25982;SDS011;13773;48.868;10.730;2023-05-21T01:10:51;10.03;;;9.03;;
25982;SDS011;13773;48.868;10.730;2023-05-21T01:13:18;11.00;;;9.97;;
25982;SDS011;13773;48.868;10.730;2023-05-21T01:15:47;11.03;;;9.30;;
25982;SDS011;13773;48.868;10.730;2023-05-21T01:18:14;17.27;;;9.63;;
25982;SDS011;13773;48.868;10.730;2023-05-21T01:20:40;12.27;;;11.07;;
25982;SDS011;13773;48.868;10.730;2023-05-21T01:23:13;10.93;;;9.87;;
25982;SDS011;13773;48.868;10.730;2023-05-21T01:25:44;11.90;;;9.53;;
25982;SDS011;13773;48.868;10.730;2023-05-21T01:28:10;10.83;;;9.80;;
25982;SDS011;13773;48.868;10.730;2023-05-21T01:30:36;10.53;;;9.53;;
25982;SDS011;13773;48.868;10.730;2023-05-21T01:35:43;11.37;;;10.17;;
25982;SDS011;13773;48.868;10.730;2023-05-21T01:41:06;10.90;;;9.80;;
25982;SDS011;13773;48.868;10.730;2023-05-21T01:43:35;11.07;;;9.83;;
25982;SDS011;13773;48.868;10.730;2023-05-21T01:46:03;10.43;;;9.43;;
25982;SDS011;13773;48.868;10.730;2023-05-21T01:48:31;10.60;;;9.50;;
25982;SDS011;13773;48.868;10.730;2023-05-21T01:51:01;11.03;;;9.93;;
25982;SDS011;13773;48.868;10.730;2023-05-21T01:53:29;10.33;;;9.23;;
25982;SDS011;13773;48.868;10.730;2023-05-21T01:55:55;13.57;;;9.77;;
25982;SDS011;13773;48.868;10.730;2023-05-21T01:58:20;10.90;;;9.80;;
25982;SDS011;13773;48.868;10.730;2023-05-21T02:00:48;10.17;;;9.20;;
25982;SDS011;13773;48.868;10.730;2023-05-21T02:03:15;11.10;;;9.67;;
25982;SDS011;13773;48.868;10.730;2023-05-21T02:05:41;10.33;;;9.33;;
25982;SDS011;13773;48.868;10.730;2023-05-21T02:08:07;9.93;;;8.93;;
25982;SDS011;13773;48.868;10.730;2023-05-21T02:10:34;10.63;;;9.03;;
25982;SDS011;13773;48.868;10.730;2023-05-21T02:13:00;11.93;;;9.70;;
25982;SDS011;13773;48.868;10.730;2023-05-21T02:15:26;12.37;;;9.57;;
25982;SDS011;13773;48.868;10.730;2023-05-21T02:17:51;10.07;;;9.07;;
25982;SDS011;13773;48.868;10.730;2023-05-21T02:20:17;10.23;;;9.10;;
25982;SDS011;13773;48.868;10.730;2023-05-21T02:22:44;9.53;;;8.47;;
25982;SDS011;13773;48.868;10.730;2023-05-21T02:25:11;9.50;;;8.60;;
25982;SDS011;13773;48.868;10.730;2023-05-21T02:27:39;9.77;;;8.83;;
25982;SDS011;13773;48.868;10.730;2023-05-21T02:30:06;9.60;;;8.60;;
25982;SDS011;13773;48.868;10.730;2023-05-21T02:32:34;9.93;;;9.03;;
25982;SDS011;13773;48.868;10.730;2023-05-21T02:35:00;9.43;;;8.53;;
25982;SDS011;13773;48.868;10.730;2023-05-21T02:37:27;10.20;;;9.30;;
25982;SDS011;13773;48.868;10.730;2023-05-21T02:39:54;9.63;;;8.73;;
25982;SDS011;13773;48.868;10.730;2023-05-21T02:42:21;13.50;;;9.40;;
25982;SDS011;13773;48.868;10.730;2023-05-21T02:44:47;9.30;;;8.30;;
25982;SDS011;13773;48.868;10.730;2023-05-21T02:47:20;9.90;;;8.67;;
25982;SDS011;13773;48.868;10.730;2023-05-21T02:49:48;10.60;;;8.23;;
25982;SDS011;13773;48.868;10.730;2023-05-21T02:52:14;11.40;;;8.67;;
25982;SDS011;13773;48.868;10.730;2023-05-21T02:54:42;9.17;;;8.23;;
25982;SDS011;13773;48.868;10.730;2023-05-21T02:57:11;9.30;;;8.40;;
25982;SDS011;13773;48.868;10.730;2023-05-21T02:59:37;9.10;;;8.10;;
25982;SDS011;13773;48.868;10.730;2023-05-21T03:02:03;10.00;;;9.10;;
25982;SDS011;13773;48.868;10.730;2023-05-21T03:04:29;9.57;;;8.57;;
25982;SDS011;13773;48.868;10.730;2023-05-21T03:06:55;9.53;;;8.57;;
25982;SDS011;13773;48.868;10.730;2023-05-21T03:09:21;10.00;;;9.00;;
25982;SDS011;13773;48.868;10.730;2023-05-21T03:11:47;9.30;;;8.40;;
25982;SDS011;13773;48.868;10.730;2023-05-21T03:14:15;9.83;;;8.50;;
25982;SDS011;13773;48.868;10.730;2023-05-21T03:16:41;9.30;;;8.40;;
25982;SDS011;13773;48.868;10.730;2023-05-21T03:19:11;9.30;;;8.40;;
25982;SDS011;13773;48.868;10.730;2023-05-21T03:21:37;9.50;;;8.60;;
25982;SDS011;13773;48.868;10.730;2023-05-21T03:24:04;9.80;;;8.90;;
25982;SDS011;13773;48.868;10.730;2023-05-21T03:26:30;10.13;;;8.20;;
25982;SDS011;13773;48.868;10.730;2023-05-21T03:28:56;8.43;;;7.70;;
25982;SDS011;13773;48.868;10.730;2023-05-21T03:31:25;9.47;;;8.50;;
25982;SDS011;13773;48.868;10.730;2023-05-21T03:33:51;8.90;;;8.10;;
25982;SDS011;13773;48.868;10.730;2023-05-21T03:36:18;9.17;;;8.33;;
25982;SDS011;13773;48.868;10.730;2023-05-21T03:38:44;9.20;;;8.10;;
25982;SDS011;13773;48.868;10.730;2023-05-21T03:41:10;8.73;;;7.93;;
25982;SDS011;13773;48.868;10.730;2023-05-21T03:43:36;9.20;;;8.30;;
25982;SDS011;13773;48.868;10.730;2023-05-21T03:46:02;8.73;;;7.90;;
25982;SDS011;13773;48.868;10.730;2023-05-21T03:48:28;8.87;;;7.90;;
25982;SDS011;13773;48.868;10.730;2023-05-21T03:50:53;8.73;;;7.83;;
25982;SDS011;13773;48.868;10.730;2023-05-21T03:53:20;9.37;;;8.17;;
25982;SDS011;13773;48.868;10.730;2023-05-21T03:55:45;9.07;;;8.23;;
25982;SDS011;13773;48.868;10.730;2023-05-21T03:58:18;9.63;;;8.33;;
25982;SDS011;13773;48.868;10.730;2023-05-21T04:00:47;8.63;;;7.77;;
25982;SDS011;13773;48.868;10.730;2023-05-21T04:03:13;8.73;;;7.83;;
25982;SDS011;13773;48.868;10.730;2023-05-21T04:05:39;8.80;;;8.00;;
25982;SDS011;13773;48.868;10.730;2023-05-21T04:08:06;9.83;;;7.83;;
25982;SDS011;13773;48.868;10.730;2023-05-21T04:10:32;9.00;;;8.03;;
25982;SDS011;13773;48.868;10.730;2023-05-21T04:12:58;8.67;;;7.83;;
25982;SDS011;13773;48.868;10.730;2023-05-21T04:15:24;8.57;;;7.77;;
25982;SDS011;13773;48.868;10.730;2023-05-21T04:17:51;8.90;;;8.03;;
25982;SDS011;13773;48.868;10.730;2023-05-21T04:20:18;9.30;;;7.93;;
25982;SDS011;13773;48.868;10.730;2023-05-21T04:22:44;8.30;;;7.53;;
25982;SDS011;13773;48.868;10.730;2023-05-21T04:25:10;8.47;;;7.43;;
25982;SDS011;13773;48.868;10.730;2023-05-21T04:27:36;8.80;;;7.90;;
25982;SDS011;13773;48.868;10.730;2023-05-21T04:30:02;9.60;;;8.67;;
25982;SDS011;13773;48.868;10.730;2023-05-21T04:32:31;8.60;;;7.73;;
25982;SDS011;13773;48.868;10.730;2023-05-21T04:34:59;8.23;;;7.43;;
25982;SDS011;13773;48.868;10.730;2023-05-21T04:37:28;7.70;;;7.00;;
25982;SDS011;13773;48.868;10.730;2023-05-21T04:39:56;10.10;;;7.07;;
25982;SDS011;13773;48.868;10.730;2023-05-21T04:42:22;8.57;;;7.67;;
25982;SDS011;13773;48.868;10.730;2023-05-21T04:44:50;9.00;;;7.43;;
25982;SDS011;13773;48.868;10.730;2023-05-21T04:47:16;8.50;;;7.40;;
25982;SDS011;13773;48.868;10.730;2023-05-21T04:49:44;10.00;;;7.23;;
25982;SDS011;13773;48.868;10.730;2023-05-21T04:52:14;8.40;;;7.00;;
25982;SDS011;13773;48.868;10.730;2023-05-21T04:54:40;9.50;;;7.10;;
25982;SDS011;13773;48.868;10.730;2023-05-21T04:57:07;7.50;;;6.50;;
25982;SDS011;13773;48.868;10.730;2023-05-21T05:02:46;7.03;;;6.20;;
25982;SDS011;13773;48.868;10.730;2023-05-21T05:05:17;6.80;;;6.13;;
25982;SDS011;13773;48.868;10.730;2023-05-21T05:07:43;7.57;;;6.77;;
25982;SDS011;13773;48.868;10.730;2023-05-21T05:10:09;7.63;;;6.93;;
25982;SDS011;13773;48.868;10.730;2023-05-21T05:12:35;7.43;;;6.73;;
25982;SDS011;13773;48.868;10.730;2023-05-21T05:15:01;8.03;;;6.67;;
25982;SDS011;13773;48.868;10.730;2023-05-21T05:17:26;6.83;;;6.13;;
25982;SDS011;13773;48.868;10.730;2023-05-21T05:19:52;7.50;;;6.77;;
25982;SDS011;13773;48.868;10.730;2023-05-21T05:22:18;7.60;;;6.90;;
25982;SDS011;13773;48.868;10.730;2023-05-21T05:24:43;8.50;;;7.03;;
25982;SDS011;13773;48.868;10.730;2023-05-21T05:27:09;7.50;;;6.73;;
25982;SDS011;13773;48.868;10.730;2023-05-21T05:29:35;7.47;;;6.37;;
25982;SDS011;13773;48.868;10.730;2023-05-21T05:32:00;7.43;;;6.73;;
25982;SDS011;13773;48.868;10.730;2023-05-21T05:34:26;7.13;;;6.43;;
25982;SDS011;13773;48.868;10.730;2023-05-21T05:36:52;7.40;;;6.80;;
25982;SDS011;13773;48.868;10.730;2023-05-21T05:39:17;7.87;;;7.07;;
25982;SDS011;13773;48.868;10.730;2023-05-21T05:41:43;7.23;;;6.57;;
25982;SDS011;13773;48.868;10.730;2023-05-21T05:44:09;7.20;;;6.50;;
25982;SDS011;13773;48.868;10.730;2023-05-21T05:46:34;7.77;;;7.03;;
25982;SDS011;13773;48.868;10.730;2023-05-21T05:49:00;7.40;;;6.70;;
25982;SDS011;13773;48.868;10.730;2023-05-21T05:51:26;8.83;;;7.17;;
25982;SDS011;13773;48.868;10.730;2023-05-21T05:53:51;7.70;;;7.00;;
25982;SDS011;13773;48.868;10.730;2023-05-21T05:56:17;7.57;;;6.77;;
25982;SDS011;13773;48.868;10.730;2023-05-21T05:58:43;7.87;;;7.17;;
25982;SDS011;13773;48.868;10.730;2023-05-21T06:01:08;7.50;;;6.80;;
25982;SDS011;13773;48.868;10.730;2023-05-21T06:03:34;7.93;;;7.20;;
25982;SDS011;13773;48.868;10.730;2023-05-21T06:06:00;8.27;;;6.80;;
25982;SDS011;13773;48.868;10.730;2023-05-21T06:08:25;7.83;;;7.03;;
25982;SDS011;13773;48.868;10.730;2023-05-21T06:10:51;7.40;;;6.70;;
25982;SDS011;13773;48.868;10.730;2023-05-21T06:13:17;8.43;;;7.63;;
25982;SDS011;13773;48.868;10.730;2023-05-21T06:15:42;8.73;;;7.60;;
25982;SDS011;13773;48.868;10.730;2023-05-21T06:18:08;7.87;;;7.00;;
25982;SDS011;13773;48.868;10.730;2023-05-21T06:20:35;9.57;;;7.40;;
25982;SDS011;13773;48.868;10.730;2023-05-21T06:23:01;9.00;;;7.77;;
25982;SDS011;13773;48.868;10.730;2023-05-21T06:25:26;8.17;;;7.37;;
25982;SDS011;13773;48.868;10.730;2023-05-21T06:27:52;8.03;;;7.23;;
25982;SDS011;13773;48.868;10.730;2023-05-21T06:30:18;7.53;;;6.83;;
25982;SDS011;13773;48.868;10.730;2023-05-21T06:32:44;8.20;;;7.50;;
25982;SDS011;13773;48.868;10.730;2023-05-21T06:35:09;8.00;;;7.00;;
25982;SDS011;13773;48.868;10.730;2023-05-21T06:37:35;8.47;;;7.57;;
25982;SDS011;13773;48.868;10.730;2023-05-21T06:40:01;8.67;;;7.80;;
25982;SDS011;13773;48.868;10.730;2023-05-21T06:42:27;7.70;;;6.90;;
25982;SDS011;13773;48.868;10.730;2023-05-21T06:44:53;8.10;;;7.10;;
25982;SDS011;13773;48.868;10.730;2023-05-21T06:47:18;8.00;;;7.20;;
25982;SDS011;13773;48.868;10.730;2023-05-21T06:49:44;7.97;;;7.17;;
25982;SDS011;13773;48.868;10.730;2023-05-21T06:52:10;8.43;;;7.73;;
25982;SDS011;13773;48.868;10.730;2023-05-21T06:54:36;9.33;;;8.20;;
25982;SDS011;13773;48.868;10.730;2023-05-21T06:57:02;8.83;;;7.83;;
25982;SDS011;13773;48.868;10.730;2023-05-21T06:59:28;9.53;;;7.37;;
25982;SDS011;13773;48.868;10.730;2023-05-21T07:01:53;8.60;;;7.77;;
25982;SDS011;13773;48.868;10.730;2023-05-21T07:04:19;8.97;;;8.07;;
25982;SDS011;13773;48.868;10.730;2023-05-21T07:06:45;9.10;;;8.30;;
25982;SDS011;13773;48.868;10.730;2023-05-21T07:09:11;9.03;;;8.13;;
25982;SDS011;13773;48.868;10.730;2023-05-21T07:11:42;9.03;;;8.07;;
25982;SDS011;13773;48.868;10.730;2023-05-21T07:14:08;9.00;;;7.97;;
25982;SDS011;13773;48.868;10.730;2023-05-21T07:16:34;8.53;;;7.83;;
25982;SDS011;13773;48.868;10.730;2023-05-21T07:18:59;9.40;;;8.50;;
25982;SDS011;13773;48.868;10.730;2023-05-21T07:21:25;9.27;;;8.37;;
25982;SDS011;13773;48.868;10.730;2023-05-21T07:23:51;8.43;;;7.53;;
25982;SDS011;13773;48.868;10.730;2023-05-21T07:26:16;9.07;;;8.27;;
25982;SDS011;13773;48.868;10.730;2023-05-21T07:28:42;9.53;;;8.63;;
25982;SDS011;13773;48.868;10.730;2023-05-21T07:31:09;9.70;;;8.67;;
25982;SDS011;13773;48.868;10.730;2023-05-21T07:33:36;9.57;;;8.63;;
25982;SDS011;13773;48.868;10.730;2023-05-21T07:36:02;10.03;;;9.13;;
25982;SDS011;13773;48.868;10.730;2023-05-21T07:38:28;10.30;;;8.97;;
25982;SDS011;13773;48.868;10.730;2023-05-21T07:40:54;10.03;;;8.17;;
25982;SDS011;13773;48.868;10.730;2023-05-21T07:43:20;9.67;;;8.67;;
25982;SDS011;13773;48.868;10.730;2023-05-21T07:45:46;9.60;;;8.70;;
25982;SDS011;13773;48.868;10.730;2023-05-21T07:48:12;10.33;;;9.23;;
25982;SDS011;13773;48.868;10.730;2023-05-21T07:50:38;10.67;;;9.63;;
25982;SDS011;13773;48.868;10.730;2023-05-21T07:53:03;9.50;;;8.60;;
25982;SDS011;13773;48.868;10.730;2023-05-21T07:55:29;9.77;;;8.87;;
25982;SDS011;13773;48.868;10.730;2023-05-21T07:57:55;9.33;;;8.40;;
25982;SDS011;13773;48.868;10.730;2023-05-21T08:00:21;9.70;;;8.80;;
25982;SDS011;13773;48.868;10.730;2023-05-21T08:02:48;10.70;;;9.47;;
25982;SDS011;13773;48.868;10.730;2023-05-21T08:05:14;10.17;;;9.07;;
25982;SDS011;13773;48.868;10.730;2023-05-21T08:07:40;10.00;;;9.10;;
25982;SDS011;13773;48.868;10.730;2023-05-21T08:10:06;9.30;;;8.33;;
25982;SDS011;13773;48.868;10.730;2023-05-21T08:12:32;9.17;;;8.33;;
25982;SDS011;13773;48.868;10.730;2023-05-21T08:14:58;9.23;;;8.33;;
25982;SDS011;13773;48.868;10.730;2023-05-21T08:17:24;10.20;;;9.20;;
25982;SDS011;13773;48.868;10.730;2023-05-21T08:19:52;9.57;;;8.67;;
25982;SDS011;13773;48.868;10.730;2023-05-21T08:22:18;10.07;;;9.00;;
25982;SDS011;13773;48.868;10.730;2023-05-21T08:24:44;9.67;;;8.73;;
25982;SDS011;13773;48.868;10.730;2023-05-21T08:27:13;10.17;;;9.10;;
25982;SDS011;13773;48.868;10.730;2023-05-21T08:29:40;12.07;;;9.33;;
25982;SDS011;13773;48.868;10.730;2023-05-21T08:32:07;10.73;;;9.73;;
25982;SDS011;13773;48.868;10.730;2023-05-21T08:34:37;9.80;;;8.80;;
25982;SDS011;13773;48.868;10.730;2023-05-21T08:37:06;10.67;;;9.67;;
25982;SDS011;13773;48.868;10.730;2023-05-21T08:39:33;9.97;;;9.17;;
25982;SDS011;13773;48.868;10.730;2023-05-21T08:42:03;10.37;;;9.37;;
25982;SDS011;13773;48.868;10.730;2023-05-21T08:44:51;10.67;;;9.63;;
25982;SDS011;13773;48.868;10.730;2023-05-21T08:47:23;11.17;;;9.20;;
25982;SDS011;13773;48.868;10.730;2023-05-21T08:49:51;10.40;;;9.40;;
25982;SDS011;13773;48.868;10.730;2023-05-21T08:52:18;9.97;;;9.07;;
25982;SDS011;13773;48.868;10.730;2023-05-21T08:54:45;10.03;;;9.07;;
25982;SDS011;13773;48.868;10.730;2023-05-21T08:57:14;10.83;;;9.07;;
25982;SDS011;13773;48.868;10.730;2023-05-21T08:59:43;10.07;;;9.10;;
25982;SDS011;13773;48.868;10.730;2023-05-21T09:02:12;10.80;;;8.93;;
25982;SDS011;13773;48.868;10.730;2023-05-21T09:04:39;10.33;;;9.37;;
25982;SDS011;13773;48.868;10.730;2023-05-21T09:07:06;9.97;;;9.07;;
25982;SDS011;13773;48.868;10.730;2023-05-21T09:09:36;9.10;;;8.30;;
25982;SDS011;13773;48.868;10.730;2023-05-21T09:12:08;10.10;;;9.10;;
25982;SDS011;13773;48.868;10.730;2023-05-21T09:14:34;9.90;;;9.00;;
25982;SDS011;13773;48.868;10.730;2023-05-21T09:17:01;8.80;;;7.90;;
25982;SDS011;13773;48.868;10.730;2023-05-21T09:19:27;10.07;;;9.07;;
25982;SDS011;13773;48.868;10.730;2023-05-21T09:21:54;9.80;;;8.80;;
25982;SDS011;13773;48.868;10.730;2023-05-21T09:24:30;9.93;;;8.93;;
25982;SDS011;13773;48.868;10.730;2023-05-21T09:26:56;9.43;;;8.53;;
25982;SDS011;13773;48.868;10.730;2023-05-21T09:29:25;9.70;;;8.40;;
25982;SDS011;13773;48.868;10.730;2023-05-21T09:31:51;9.27;;;8.40;;
25982;SDS011;13773;48.868;10.730;2023-05-21T09:34:18;9.87;;;8.87;;
25982;SDS011;13773;48.868;10.730;2023-05-21T09:36:45;9.83;;;8.83;;
25982;SDS011;13773;48.868;10.730;2023-05-21T09:39:25;9.57;;;8.13;;
25982;SDS011;13773;48.868;10.730;2023-05-21T09:41:52;9.90;;;9.00;;
25982;SDS011;13773;48.868;10.730;2023-05-21T09:44:21;9.87;;;8.87;;
25982;SDS011;13773;48.868;10.730;2023-05-21T09:46:47;9.63;;;8.73;;
25982;SDS011;13773;48.868;10.730;2023-05-21T09:49:22;10.40;;;9.40;;
25982;SDS011;13773;48.868;10.730;2023-05-21T09:51:53;9.77;;;8.97;;
25982;SDS011;13773;48.868;10.730;2023-05-21T09:54:22;9.13;;;8.30;;
25982;SDS011;13773;48.868;10.730;2023-05-21T09:56:50;10.07;;;9.07;;
25982;SDS011;13773;48.868;10.730;2023-05-21T09:59:19;9.35;;;8.55;;
25982;SDS011;13773;48.868;10.730;2023-05-21T10:01:46;10.02;;;9.02;;
25982;SDS011;13773;48.868;10.730;2023-05-21T10:04:14;8.50;;;7.80;;
25982;SDS011;13773;48.868;10.730;2023-05-21T10:06:41;8.73;;;7.93;;
25982;SDS011;13773;48.868;10.730;2023-05-21T10:09:09;10.23;;;8.18;;
25982;SDS011;13773;48.868;10.730;2023-05-21T10:11:35;8.70;;;8.00;;
25982;SDS011;13773;48.868;10.730;2023-05-21T10:14:05;8.57;;;7.88;;
25982;SDS011;13773;48.868;10.730;2023-05-21T10:16:33;8.63;;;7.60;;
25982;SDS011;13773;48.868;10.730;2023-05-21T10:19:00;8.30;;;7.60;;
25982;SDS011;13773;48.868;10.730;2023-05-21T10:21:26;7.80;;;7.00;;
25982;SDS011;13773;48.868;10.730;2023-05-21T10:23:57;8.35;;;7.65;;
25982;SDS011;13773;48.868;10.730;2023-05-21T10:26:23;9.88;;;8.15;;
25982;SDS011;13773;48.868;10.730;2023-05-21T10:28:52;7.35;;;6.82;;
25982;SDS011;13773;48.868;10.730;2023-05-21T10:31:20;8.27;;;7.50;;
25982;SDS011;13773;48.868;10.730;2023-05-21T10:33:47;7.75;;;7.15;;
25982;SDS011;13773;48.868;10.730;2023-05-21T10:36:15;8.68;;;7.85;;
25982;SDS011;13773;48.868;10.730;2023-05-21T10:38:44;7.80;;;7.10;;
25982;SDS011;13773;48.868;10.730;2023-05-21T10:41:11;8.63;;;7.82;;
25982;SDS011;13773;48.868;10.730;2023-05-21T11:00:01;6.55;;;6.05;;
25982;SDS011;13773;48.868;10.730;2023-05-21T11:02:30;7.35;;;6.57;;
25982;SDS011;13773;48.868;10.730;2023-05-21T11:04:57;7.25;;;6.47;;
25982;SDS011;13773;48.868;10.730;2023-05-21T11:07:29;7.00;;;6.40;;
25982;SDS011;13773;48.868;10.730;2023-05-21T11:10:36;7.43;;;6.72;;
25982;SDS011;13773;48.868;10.730;2023-05-21T11:21:03;7.57;;;6.65;;
25982;SDS011;13773;48.868;10.730;2023-05-21T11:26:14;7.03;;;6.35;;
25982;SDS011;13773;48.868;10.730;2023-05-21T11:28:41;6.32;;;5.82;;
25982;SDS011;13773;48.868;10.730;2023-05-21T11:31:25;7.25;;;6.55;;
25982;SDS011;13773;48.868;10.730;2023-05-21T11:36:39;7.20;;;6.50;;
25982;SDS011;13773;48.868;10.730;2023-05-21T11:39:17;7.15;;;6.50;;
25982;SDS011;13773;48.868;10.730;2023-05-21T11:41:55;9.13;;;6.63;;
25982;SDS011;13773;48.868;10.730;2023-05-21T11:44:44;6.63;;;5.93;;
25982;SDS011;13773;48.868;10.730;2023-05-21T11:47:13;7.60;;;6.90;;
25982;SDS011;13773;48.868;10.730;2023-05-21T11:49:40;7.68;;;6.93;;
25982;SDS011;13773;48.868;10.730;2023-05-21T11:52:06;7.22;;;6.65;;
25982;SDS011;13773;48.868;10.730;2023-05-21T11:54:38;7.57;;;6.97;;
25982;SDS011;13773;48.868;10.730;2023-05-21T11:57:05;7.47;;;6.78;;
25982;SDS011;13773;48.868;10.730;2023-05-21T11:59:32;7.30;;;6.60;;
25982;SDS011;13773;48.868;10.730;2023-05-21T12:01:58;7.20;;;6.50;;
25982;SDS011;13773;48.868;10.730;2023-05-21T12:04:28;6.95;;;6.25;;
25982;SDS011;13773;48.868;10.730;2023-05-21T12:06:55;6.90;;;6.35;;
25982;SDS011;13773;48.868;10.730;2023-05-21T12:09:22;10.38;;;6.57;;
25982;SDS011;13773;48.868;10.730;2023-05-21T12:11:48;6.78;;;6.18;;
25982;SDS011;13773;48.868;10.730;2023-05-21T12:14:15;7.20;;;6.53;;
25982;SDS011;13773;48.868;10.730;2023-05-21T12:16:41;7.32;;;6.13;;
25982;SDS011;13773;48.868;10.730;2023-05-21T12:19:08;7.45;;;6.78;;
25982;SDS011;13773;48.868;10.730;2023-05-21T12:21:34;7.13;;;6.43;;
25982;SDS011;13773;48.868;10.730;2023-05-21T12:24:00;6.47;;;5.88;;
25982;SDS011;13773;48.868;10.730;2023-05-21T12:26:26;7.45;;;6.75;;
25982;SDS011;13773;48.868;10.730;2023-05-21T12:28:55;7.05;;;6.35;;
25982;SDS011;13773;48.868;10.730;2023-05-21T12:31:22;7.03;;;6.43;;
25982;SDS011;13773;48.868;10.730;2023-05-21T12:33:49;7.57;;;6.88;;
25982;SDS011;13773;48.868;10.730;2023-05-21T12:36:22;7.20;;;6.60;;
25982;SDS011;13773;48.868;10.730;2023-05-21T12:38:54;7.00;;;6.40;;
25982;SDS011;13773;48.868;10.730;2023-05-21T12:41:21;8.07;;;6.80;;
25982;SDS011;13773;48.868;10.730;2023-05-21T12:43:47;6.93;;;6.22;;
25982;SDS011;13773;48.868;10.730;2023-05-21T12:46:14;7.32;;;6.03;;
25982;SDS011;13773;48.868;10.730;2023-05-21T12:48:52;7.07;;;6.40;;
25982;SDS011;13773;48.868;10.730;2023-05-21T12:51:19;6.75;;;6.07;;
25982;SDS011;13773;48.868;10.730;2023-05-21T12:53:45;7.50;;;6.90;;
25982;SDS011;13773;48.868;10.730;2023-05-21T12:56:12;6.93;;;6.32;;
25982;SDS011;13773;48.868;10.730;2023-05-21T12:58:39;7.35;;;6.57;;
25982;SDS011;13773;48.868;10.730;2023-05-21T13:01:06;7.38;;;6.68;;
25982;SDS011;13773;48.868;10.730;2023-05-21T13:03:33;6.43;;;5.93;;
25982;SDS011;13773;48.868;10.730;2023-05-21T13:06:01;7.28;;;6.65;;
25982;SDS011;13773;48.868;10.730;2023-05-21T13:08:31;6.63;;;6.07;;
25982;SDS011;13773;48.868;10.730;2023-05-21T13:11:03;6.82;;;6.25;;
25982;SDS011;13773;48.868;10.730;2023-05-21T13:13:29;6.22;;;5.68;;
25982;SDS011;13773;48.868;10.730;2023-05-21T13:15:55;7.25;;;6.10;;
25982;SDS011;13773;48.868;10.730;2023-05-21T13:18:21;8.75;;;6.63;;
25982;SDS011;13773;48.868;10.730;2023-05-21T13:20:47;7.13;;;6.43;;
25982;SDS011;13773;48.868;10.730;2023-05-21T13:23:13;6.35;;;5.82;;
25982;SDS011;13773;48.868;10.730;2023-05-21T13:25:42;6.97;;;6.38;;
25982;SDS011;13773;48.868;10.730;2023-05-21T13:28:08;6.47;;;5.95;;
25982;SDS011;13773;48.868;10.730;2023-05-21T13:30:39;6.93;;;6.32;;
25982;SDS011;13773;48.868;10.730;2023-05-21T13:33:04;6.90;;;6.20;;
25982;SDS011;13773;48.868;10.730;2023-05-21T13:35:30;8.02;;;6.32;;
25982;SDS011;13773;48.868;10.730;2023-05-21T13:37:56;5.97;;;5.50;;
25982;SDS011;13773;48.868;10.730;2023-05-21T13:40:22;7.20;;;6.50;;
25982;SDS011;13773;48.868;10.730;2023-05-21T13:42:48;6.97;;;6.32;;
25982;SDS011;13773;48.868;10.730;2023-05-21T13:45:15;7.07;;;6.38;;
25982;SDS011;13773;48.868;10.730;2023-05-21T13:47:43;8.80;;;6.10;;
25982;SDS011;13773;48.868;10.730;2023-05-21T13:50:10;7.47;;;6.78;;
25982;SDS011;13773;48.868;10.730;2023-05-21T13:52:37;6.97;;;6.43;;
25982;SDS011;13773;48.868;10.730;2023-05-21T13:55:03;7.00;;;6.40;;
25982;SDS011;13773;48.868;10.730;2023-05-21T13:57:30;8.07;;;6.45;;
25982;SDS011;13773;48.868;10.730;2023-05-21T13:59:56;7.28;;;6.60;;
25982;SDS011;13773;48.868;10.730;2023-05-21T14:02:23;7.25;;;6.55;;
25982;SDS011;13773;48.868;10.730;2023-05-21T14:04:49;7.25;;;6.60;;
25982;SDS011;13773;48.868;10.730;2023-05-21T14:07:15;7.47;;;6.78;;
25982;SDS011;13773;48.868;10.730;2023-05-21T14:09:41;7.63;;;6.97;;
25982;SDS011;13773;48.868;10.730;2023-05-21T14:12:07;7.75;;;6.95;;
25982;SDS011;13773;48.868;10.730;2023-05-21T14:14:33;7.45;;;6.75;;
25982;SDS011;13773;48.868;10.730;2023-05-21T14:16:58;7.50;;;6.80;;
25982;SDS011;13773;48.868;10.730;2023-05-21T14:19:24;7.78;;;6.97;;
25982;SDS011;13773;48.868;10.730;2023-05-21T14:21:50;7.80;;;7.05;;
25982;SDS011;13773;48.868;10.730;2023-05-21T14:24:16;8.18;;;7.38;;
25982;SDS011;13773;48.868;10.730;2023-05-21T14:26:42;7.47;;;6.78;;
25982;SDS011;13773;48.868;10.730;2023-05-21T14:29:08;8.10;;;7.20;;
25982;SDS011;13773;48.868;10.730;2023-05-21T14:31:34;7.75;;;6.95;;
25982;SDS011;13773;48.868;10.730;2023-05-21T14:34:00;7.57;;;6.97;;
25982;SDS011;13773;48.868;10.730;2023-05-21T14:36:31;7.60;;;7.00;;
25982;SDS011;13773;48.868;10.730;2023-05-21T14:38:56;8.70;;;6.97;;
25982;SDS011;13773;48.868;10.730;2023-05-21T14:41:23;7.68;;;7.03;;
25982;SDS011;13773;48.868;10.730;2023-05-21T14:43:50;7.88;;;7.13;;
25982;SDS011;13773;48.868;10.730;2023-05-21T14:46:16;7.95;;;7.20;;
25982;SDS011;13773;48.868;10.730;2023-05-21T14:48:42;8.02;;;7.32;;
25982;SDS011;13773;48.868;10.730;2023-05-21T14:51:10;8.10;;;7.35;;
25982;SDS011;13773;48.868;10.730;2023-05-21T14:53:37;7.95;;;7.25;;
25982;SDS011;13773;48.868;10.730;2023-05-21T14:56:03;7.85;;;7.18;;
25982;SDS011;13773;48.868;10.730;2023-05-21T14:58:29;7.63;;;7.00;;
25982;SDS011;13773;48.868;10.730;2023-05-21T15:00:55;7.55;;;6.95;;
25982;SDS011;13773;48.868;10.730;2023-05-21T15:03:21;7.30;;;6.60;;
25982;SDS011;13773;48.868;10.730;2023-05-21T15:05:46;7.68;;;7.07;;
25982;SDS011;13773;48.868;10.730;2023-05-21T15:08:12;7.20;;;6.60;;
25982;SDS011;13773;48.868;10.730;2023-05-21T15:10:38;7.30;;;6.70;;